Time;durP1;ratioP1;P1;durP2;ratioP2;P2;SDS_P1;SDS_P2;PMS_P1;PMS_P2;Temp;Humidity;BMP_temperature;BMP_pressure;BME280_temperature;BME280_humidity;BME280_pressure;Samples;Min_cycle;Max_cycle;Signal;HPM_P1;HPM_P2
2022/12/31 00:02:13;;;;;;;33.40;28.10;;;;;;;5.00;71.97;100072.89;109072;1273;21930;-80
2022/12/31 00:05:06;;;;;;;32.10;28.60;;;;;;;5.02;71.90;100066.65;108984;1273;21949;-81
2022/12/31 00:07:57;;;;;;;33.30;29.80;;;;;;;5.02;71.88;100066.63;108971;1274;24995;-80
2022/12/31 00:10:45;;;;;;;33.50;30.00;;;;;;;5.05;71.86;100066.92;109099;1269;22792;-81
2022/12/31 00:13:32;;;;;;;32.60;28.80;;;;;;;5.07;71.95;100061.88;108889;1273;21936;-79
2022/12/31 00:16:25;;;;;;;33.30;29.40;;;;;;;5.10;71.95;100058.21;109180;1271;23544;-79
2022/12/31 00:19:17;;;;;;;30.00;26.80;;;;;;;5.12;71.90;100053.16;108948;1272;22710;-81
2022/12/31 00:22:18;;;;;;;;;;;;;;;;;;;;;
2022/12/31 00:25:03;;;;;;;26.50;20.80;;;;;;;5.20;71.76;100052.30;108676;1279;23773;-81
2022/12/31 00:27:57;;;;;;;;;;;;;;;5.23;71.74;100063.48;108404;1285;21940;-81
2022/12/31 00:31:10;;;;;;;27.60;19.30;;;;;;;5.18;71.90;100073.58;108277;1285;23254;-82
2022/12/31 00:33:56;;;;;;;26.20;22.60;;;;;;;5.22;71.99;100069.18;108380;1271;23144;-80
2022/12/31 00:36:37;;;;;;;27.60;23.40;;;;;;;5.29;71.81;100066.98;107708;1291;21961;-81
2022/12/31 00:39:31;;;;;;;28.00;22.60;;;;;;;5.35;71.69;100069.79;107844;1285;21946;-80
2022/12/31 00:42:26;;;;;;;28.00;24.60;;;;;;;5.40;71.69;100065.36;108322;1285;23705;-81
2022/12/31 00:45:27;;;;;;;24.40;21.80;;;;;;;5.43;71.50;100057.71;108412;1279;21941;-81
2022/12/31 00:48:33;;;;;;;27.40;24.60;;;;;;;5.45;71.45;100056.45;108537;1278;22036;-80
2022/12/31 00:51:26;;;;;;;29.90;25.20;;;;;;;5.51;71.50;100063.58;108616;1279;21937;-80
2022/12/31 00:54:27;;;;;;;31.80;28.50;;;;;;;5.54;71.37;100071.61;108633;1273;22064;-81
2022/12/31 00:57:19;;;;;;;31.80;28.50;;;;;;;5.57;71.29;100077.43;109030;1272;23150;-80
2022/12/31 01:00:11;;;;;;;33.40;29.50;;;;;;;5.61;71.31;100082.17;109118;1274;23740;-80
2022/12/31 01:03:03;;;;;;;30.40;27.20;;;;;;;5.68;71.25;100087.04;108943;1270;22947;-79
2022/12/31 01:05:42;;;;;;;29.10;25.70;;;;;;;5.70;71.06;100090.27;108928;1272;21944;-78
2022/12/31 01:08:17;;;;;;;29.60;25.80;;;;;;;5.72;71.10;100087.80;108750;1276;23059;-79
2022/12/31 01:13:57;;;;;;;26.40;23.50;;;;;;;5.82;70.88;100089.48;108643;1271;21938;-78
2022/12/31 01:16:35;;;;;;;27.50;24.60;;;;;;;5.84;70.86;100086.66;108560;1278;21931;-80
2022/12/31 01:19:18;;;;;;;28.30;25.40;;;;;;;5.89;70.79;100070.69;108757;1278;21933;-81
2022/12/31 01:21:55;;;;;;;33.20;29.30;;;;;;;5.92;70.80;100070.80;108616;1277;21931;-80
2022/12/31 01:24:34;;;;;;;32.60;29.20;;;;;;;5.95;70.63;100072.30;108721;1277;21930;-80
2022/12/31 01:27:11;;;;;;;30.20;26.90;;;;;;;5.98;70.61;100067.21;108979;1274;21939;-80
2022/12/31 01:29:48;;;;;;;31.50;28.10;;;;;;;6.01;70.57;100059.88;108893;1272;23848;-79
2022/12/31 01:32:22;;;;;;;30.10;27.00;;;;;;;6.06;70.45;100056.67;108739;1268;22314;-79
2022/12/31 01:34:54;;;;;;;28.10;25.10;;;;;;;6.09;70.49;100047.08;108489;1278;21957;-79
2022/12/31 01:37:33;;;;;;;26.90;23.50;;;;;;;6.12;70.41;100047.71;108183;1283;23629;-79
2022/12/31 01:40:24;;;;;;;22.30;19.90;;;;;;;6.13;70.26;100051.14;108318;1283;21947;-80
2022/12/31 01:43:43;;;;;;;21.40;18.90;;;;;;;6.12;70.29;100058.41;108331;1283;23623;-81
2022/12/31 01:46:41;;;;;;;22.80;16.80;;;;;;;6.14;70.36;100065.99;108354;1283;21975;-81
2022/12/31 01:49:48;;;;;;;20.00;17.20;;;;;;;6.14;70.29;100064.77;107810;1283;21972;-80
2022/12/31 01:52:43;;;;;;;20.80;17.40;;;;;;;6.14;70.35;100064.77;107933;1285;21937;-82
2022/12/31 01:55:27;;;;;;;22.40;18.40;;;;;;;6.18;70.41;100061.39;107861;1282;21949;-80
2022/12/31 01:58:16;;;;;;;22.20;19.80;;;;;;;6.21;70.40;100058.71;108447;1283;21939;-80
2022/12/31 02:00:57;;;;;;;25.60;21.40;;;;;;;6.24;70.31;100064.70;108379;1283;21964;-80
2022/12/31 02:03:41;;;;;;;25.00;22.40;;;;;;;6.28;70.37;100064.09;108398;1282;21991;-80
2022/12/31 02:06:20;;;;;;;26.40;23.80;;;;;;;6.34;70.39;100064.98;107961;1288;23034;-80
2022/12/31 02:08:54;;;;;;;28.40;25.50;;;;;;;6.38;70.32;100062.45;107650;1292;21960;-80
2022/12/31 02:11:35;;;;;;;25.40;22.90;;;;;;;6.41;70.34;100068.75;107673;1290;22176;-80
2022/12/31 02:14:18;;;;;;;26.10;23.50;;;;;;;6.43;70.24;100076.15;107686;1291;23630;-79
2022/12/31 02:17:34;;;;;;;27.60;22.60;;;;;;;6.46;70.18;100082.48;107749;1289;22417;-79
2022/12/31 02:20:44;;;;;;;26.50;23.80;;;;;;;6.45;70.19;100075.73;107660;1292;23128;-82
2022/12/31 02:23:37;;;;;;;27.30;24.50;;;;;;;6.49;70.23;100078.77;107521;1291;23698;-80
2022/12/31 02:26:16;;;;;;;;;;;;;;;6.55;70.32;100076.52;108223;1276;21926;-80
2022/12/31 02:29:54;;;;;;;26.90;24.20;;;;;;;6.55;70.38;100073.60;108884;1271;23034;-80
2022/12/31 02:36:45;;;;;;;26.80;24.20;;;;;;;6.58;70.35;100069.89;108919;1258;21927;-79
2022/12/31 02:39:39;;;;;;;28.50;25.60;;;;;;;6.65;70.30;100078.35;109046;1271;23668;-80
2022/12/31 02:42:17;;;;;;;32.40;27.40;;;;;;;6.75;70.23;100078.61;107915;1271;1386243;-79
2022/12/31 02:45:41;;;;;;;33.30;25.90;;;;;;;6.84;70.10;100083.91;108754;1277;21981;-80
2022/12/31 02:48:44;;;;;;;23.80;21.40;;;;;;;6.90;69.92;100086.86;108295;1278;22468;-80
2022/12/31 02:52:12;;;;;;;;;;;;;;;;;;;;;
2022/12/31 02:55:20;;;;;;;22.90;19.00;;;;;;;6.94;69.75;100091.10;107671;1288;23682;-80
2022/12/31 02:58:16;;;;;;;22.80;19.60;;;;;;;6.99;69.70;100089.57;108125;1288;21946;-80
2022/12/31 03:04:35;;;;;;;21.40;19.20;;;;;;;7.05;69.67;100090.10;108005;1283;21957;-79
2022/12/31 03:07:49;;;;;;;;;;;;;;;;;;;;;
2022/12/31 03:10:56;;;;;;;18.20;16.30;;;;;;;7.12;69.57;100087.48;108438;1274;23061;-80
2022/12/31 03:14:13;;;;;;;;;;;;;;;;;;;;;
2022/12/31 03:16:54;;;;;;;15.60;12.90;;;;;;;7.25;69.52;100085.20;108356;1279;21945;-79
2022/12/31 03:22:49;;;;;;;12.90;10.40;;;;;;;7.41;69.37;100081.98;108594;1279;21954;-80
2022/12/31 03:25:37;;;;;;;10.30;9.20;;;;;;;7.49;69.25;100081.06;108542;1280;21939;-78
2022/12/31 03:28:21;;;;;;;11.20;9.30;;;;;;;7.57;69.10;100084.47;108685;1279;22009;-80
2022/12/31 03:31:07;;;;;;;10.30;9.20;;;;;;;7.64;68.96;100087.03;108877;1274;23135;-79
2022/12/31 03:33:41;;;;;;;9.90;8.90;;;;;;;7.71;68.86;100091.66;108796;1277;22387;-79
2022/12/31 03:36:19;;;;;;;11.70;9.90;;;;;;;7.78;68.77;100094.40;108513;1278;22375;-80
2022/12/31 03:39:06;;;;;;;13.70;10.40;;;;;;;7.84;68.56;100093.00;108511;1278;22261;-79
2022/12/31 03:41:45;;;;;;;13.40;10.20;;;;;;;7.93;68.51;100098.27;108575;1277;21938;-79
2022/12/31 03:44:23;;;;;;;11.20;9.50;;;;;;;7.99;68.52;100093.58;108777;1275;21997;-79
2022/12/31 03:47:09;;;;;;;8.90;8.00;;;;;;;8.09;68.16;100090.69;108630;1278;22044;-80
2022/12/31 03:50:00;;;;;;;8.30;7.30;;;;;;;8.14;68.05;100086.02;108768;1278;21929;-81
2022/12/31 03:52:46;;;;;;;8.60;7.00;;;;;;;8.21;68.08;100093.94;108805;1278;21936;-80
2022/12/31 03:55:30;;;;;;;7.40;6.60;;;;;;;8.29;67.90;100097.66;108732;1278;21935;-81
2022/12/31 03:58:42;;;;;;;8.80;6.70;;;;;;;8.34;67.64;100099.25;108899;1274;21917;-80
2022/12/31 04:01:45;;;;;;;9.00;6.00;;;;;;;8.39;67.53;100105.50;109028;1272;23051;-80
2022/12/31 04:04:25;;;;;;;7.40;6.50;;;;;;;8.43;67.39;100111.80;108917;1274;21946;-82
2022/12/31 04:07:25;;;;;;;7.60;5.80;;;;;;;8.45;67.32;100117.10;108904;1273;23093;-80
2022/12/31 04:10:13;;;;;;;6.00;5.40;;;;;;;8.50;67.16;100117.11;108799;1272;24029;-79
2022/12/31 04:13:01;;;;;;;6.80;5.70;;;;;;;8.53;67.10;100111.80;108750;1274;23773;-79
2022/12/31 04:16:00;;;;;;;7.40;6.30;;;;;;;8.54;67.10;100110.55;109082;1272;21929;-79
2022/12/31 04:19:05;;;;;;;;;;;;;;;;;;;;;
2022/12/31 04:21:57;;;;;;;8.70;7.70;;;;;;;8.59;67.01;100105.19;108876;1272;22262;-80
2022/12/31 04:24:45;;;;;;;8.20;6.90;;;;;;;8.62;66.93;100105.64;108949;1272;22516;-80
2022/12/31 04:27:45;;;;;;;6.60;5.90;;;;;;;8.62;66.85;100101.63;108926;1272;21954;-78
2022/12/31 04:30:33;;;;;;;9.80;6.90;;;;;;;8.61;66.81;100096.13;108958;1273;21959;-78
2022/12/31 04:33:18;;;;;;;10.00;8.20;;;;;;;8.60;66.79;100101.89;108712;1274;21914;-79
2022/12/31 04:36:13;;;;;;;11.20;7.80;;;;;;;8.61;66.87;100092.48;108323;1277;21939;-80
2022/12/31 04:39:00;;;;;;;8.40;7.20;;;;;;;8.62;66.94;100093.83;108474;1277;22150;-79
2022/12/31 04:41:49;;;;;;;7.60;6.80;;;;;;;8.63;66.78;100095.36;108543;1267;21947;-79
2022/12/31 04:44:43;;;;;;;11.20;6.60;;;;;;;8.64;66.84;100095.52;108754;1277;21938;-80
2022/12/31 04:47:34;;;;;;;;;;;;;;;;;;;;;
2022/12/31 04:50:46;;;;;;;7.50;6.20;;;;;;;8.65;66.93;100107.60;108501;1277;23084;-80
2022/12/31 04:53:29;;;;;;;7.40;6.40;;;;;;;8.66;66.95;100102.90;108578;1272;23006;-79
2022/12/31 04:56:18;;;;;;;;;;;;;;;8.66;66.98;100101.69;108828;1272;21951;-81
2022/12/31 05:02:26;;;;;;;6.60;6.00;;;;;;;8.56;67.24;100102.70;108507;1277;22697;-80
2022/12/31 05:05:15;;;;;;;7.60;6.80;;;;;;;8.59;67.21;100102.95;108390;1282;21955;-80
2022/12/31 05:07:52;;;;;;;7.20;6.50;;;;;;;8.64;67.18;100106.09;108464;1276;21933;-80
2022/12/31 05:10:34;;;;;;;7.10;6.40;;;;;;;8.65;67.15;100097.72;108447;1280;21954;-79
2022/12/31 05:13:20;;;;;;;7.10;6.40;;;;;;;8.65;67.18;100096.50;107812;1289;21941;-80
2022/12/31 05:16:10;;;;;;;11.40;8.20;;;;;;;8.62;67.28;100097.84;108019;1283;21974;-78
2022/12/31 05:18:56;;;;;;;8.90;7.00;;;;;;;8.65;67.28;100106.06;107691;1289;22034;-81
2022/12/31 05:21:39;;;;;;;8.30;6.60;;;;;;;8.72;67.24;100111.19;107457;1292;23862;-80
2022/12/31 05:24:38;;;;;;;10.00;6.50;;;;;;;8.70;67.25;100117.14;107599;1289;22458;-79
2022/12/31 05:27:12;;;;;;;9.80;6.70;;;;;;;8.71;67.27;100124.91;108044;1286;21940;-79
2022/12/31 05:29:47;;;;;;;9.70;7.80;;;;;;;8.74;67.27;100129.16;107941;1288;21953;-81
2022/12/31 05:32:36;;;;;;;9.30;6.50;;;;;;;8.78;67.27;100133.23;108104;1282;21952;-79
2022/12/31 05:35:24;;;;;;;11.50;8.40;;;;;;;8.79;67.26;100137.70;108089;1282;21957;-79
2022/12/31 05:38:15;;;;;;;;;;;;;;;8.76;67.22;100145.58;108658;1279;21891;-80
2022/12/31 05:41:03;;;;;;;10.40;7.70;;;;;;;8.66;67.46;100143.48;108867;1274;21947;-80
2022/12/31 05:43:46;;;;;;;8.80;7.10;;;;;;;8.68;67.53;100139.79;108658;1273;24280;-80
2022/12/31 05:46:39;;;;;;;7.00;6.40;;;;;;;8.72;67.53;100138.95;108862;1272;21945;-79
2022/12/31 05:49:19;;;;;;;8.40;7.40;;;;;;;8.74;67.40;100135.77;109009;1274;21949;-79
2022/12/31 05:52:03;;;;;;;9.80;8.80;;;;;;;8.75;67.45;100130.19;108518;1279;21944;-78
2022/12/31 05:55:27;;;;;;;10.00;7.90;;;;;;;8.70;67.39;100126.17;108362;1279;21940;-78
2022/12/31 05:58:07;;;;;;;9.20;8.20;;;;;;;8.67;67.52;100123.34;108233;1279;21939;-82
2022/12/31 06:01:16;;;;;;;10.70;9.20;;;;;;;8.62;67.51;100126.42;108237;1283;21954;-81
2022/12/31 06:04:00;;;;;;;10.00;8.20;;;;;;;8.61;67.40;100129.75;108455;1283;21902;-81
2022/12/31 06:06:33;;;;;;;7.50;6.80;;;;;;;8.61;67.38;100133.05;108468;1283;21946;-83
2022/12/31 06:09:32;;;;;;;7.10;6.40;;;;;;;8.58;67.45;100138.89;108017;1281;22131;-80
2022/12/31 06:12:35;;;;;;;9.00;8.20;;;;;;;8.53;67.58;100141.13;108610;1269;21949;-80
2022/12/31 06:15:12;;;;;;;9.30;8.30;;;;;;;8.50;67.72;100144.52;108652;1280;21949;-81
2022/12/31 06:18:10;;;;;;;9.90;8.60;;;;;;;8.50;67.72;100143.84;108633;1280;22726;-80
2022/12/31 06:21:07;;;;;;;10.00;8.60;;;;;;;8.49;67.91;100146.84;108315;1282;22191;-79
2022/12/31 06:23:43;;;;;;;13.40;10.00;;;;;;;8.49;68.08;100151.85;108466;1283;22725;-81
2022/12/31 06:26:28;;;;;;;12.90;9.70;;;;;;;8.53;68.14;100149.46;108405;1283;23174;-81
2022/12/31 06:29:09;;;;;;;10.80;9.30;;;;;;;8.55;68.14;100144.01;108660;1278;22877;-81
2022/12/31 06:31:39;;;;;;;9.00;8.00;;;;;;;8.60;68.16;100145.95;108797;1278;24303;-81
2022/12/31 06:34:14;;;;;;;9.90;8.60;;;;;;;8.62;68.16;100141.00;108639;1278;23098;-81
2022/12/31 06:37:14;;;;;;;12.10;8.90;;;;;;;8.60;68.28;100139.53;108750;1277;22800;-81
2022/12/31 06:39:51;;;;;;;8.90;8.00;;;;;;;8.61;68.29;100140.89;108473;1278;21930;-81
2022/12/31 06:42:56;;;;;;;9.30;8.00;;;;;;;8.62;68.40;100139.29;108629;1280;21999;-82
2022/12/31 06:46:05;;;;;;;10.70;8.10;;;;;;;8.61;68.54;100135.82;108778;1275;23756;-80
2022/12/31 06:48:53;;;;;;;9.60;7.50;;;;;;;8.65;68.50;100131.90;108798;1275;21939;-82
2022/12/31 06:51:34;;;;;;;8.20;6.50;;;;;;;8.69;68.54;100140.95;108803;1275;21964;-80
2022/12/31 06:54:23;;;;;;;10.10;7.20;;;;;;;8.70;68.34;100143.52;108966;1275;23667;-81
2022/12/31 06:57:41;;;;;;;9.90;7.80;;;;;;;8.71;68.48;100146.42;108800;1275;21930;-80
2022/12/31 07:00:32;;;;;;;;;;;;;;;;;;;;;
2022/12/31 07:03:54;;;;;;;28.80;10.70;;;;;;;8.78;68.53;100154.87;108642;1277;21904;-81
2022/12/31 07:07:04;;;;;;;8.30;7.00;;;;;;;8.80;68.51;100155.33;108776;1277;22818;-80
2022/12/31 07:10:11;;;;;;;12.80;10.00;;;;;;;8.83;68.53;100151.77;108795;1277;21935;-80
2022/12/31 07:13:33;;;;;;;21.50;14.80;;;;;;;8.88;68.65;100154.23;108812;1275;21936;-81
2022/12/31 07:16:39;;;;;;;20.60;16.80;;;;;;;8.90;68.56;100155.02;108715;1276;21935;-81
2022/12/31 07:19:35;;;;;;;15.90;13.40;;;;;;;8.93;68.65;100155.58;108768;1277;23790;-81
2022/12/31 07:22:19;;;;;;;13.40;12.10;;;;;;;8.95;68.60;100155.17;108756;1278;21930;-81
2022/12/31 07:25:06;;;;;;;11.10;9.70;;;;;;;8.97;68.62;100157.89;108603;1280;23589;-80
2022/12/31 07:27:52;;;;;;;12.20;10.00;;;;;;;9.01;68.62;100158.64;108517;1278;21986;-80
2022/12/31 07:30:53;;;;;;;10.90;9.60;;;;;;;9.06;68.74;100158.78;108569;1277;22808;-79
2022/12/31 07:34:07;;;;;;;8.90;7.70;;;;;;;9.11;68.77;100162.11;108108;1282;21976;-79
2022/12/31 07:36:57;;;;;;;8.10;7.30;;;;;;;9.13;68.83;100164.97;108386;1282;22073;-86
2022/12/31 07:40:26;;;;;;;8.80;6.90;;;;;;;9.16;68.78;100160.88;108211;1282;23081;-80
2022/12/31 07:43:24;;;;;;;11.10;9.60;;;;;;;9.17;68.82;100151.83;108143;1283;21958;-79
2022/12/31 07:46:12;;;;;;;9.00;8.10;;;;;;;9.22;68.71;100145.03;107644;1286;23133;-77
2022/12/31 07:48:42;;;;;;;10.20;9.20;;;;;;;9.26;68.61;100149.23;107629;1288;21949;-79
2022/12/31 07:51:12;;;;;;;10.90;9.10;;;;;;;9.28;68.61;100145.86;107481;1282;21950;-78
2022/12/31 07:53:52;;;;;;;10.20;8.00;;;;;;;9.31;68.66;100148.35;107316;1291;23594;-77
2022/12/31 07:56:29;;;;;;;10.20;7.40;;;;;;;9.36;68.58;100148.86;107445;1292;21974;-76
2022/12/31 07:59:34;;;;;;;9.00;7.30;;;;;;;9.39;68.64;100153.98;107696;1283;21965;-78
2022/12/31 08:03:36;;;;;;;11.80;9.80;;;;;;;9.42;68.81;100160.30;108112;1282;22318;-78
2022/12/31 08:06:51;;;;;;;;;;;;;;;;;;;;;
2022/12/31 08:10:01;;;;;;;9.70;7.50;;;;;;;9.50;69.02;100155.49;108159;1281;23058;-78
2022/12/31 08:16:16;;;;;;;12.40;7.80;;;;;;;9.61;68.89;100154.40;108382;1278;23672;-77
2022/12/31 08:19:31;;;;;;;11.90;8.50;;;;;;;9.67;68.82;100166.51;108373;1278;23139;-77
2022/12/31 08:22:29;;;;;;;14.00;11.60;;;;;;;9.73;68.80;100178.29;108306;1278;21940;-77
2022/12/31 08:25:36;;;;;;;10.20;8.40;;;;;;;9.82;68.92;100180.92;108478;1276;21920;-78
2022/12/31 08:28:51;;;;;;;19.50;14.90;;;;;;;9.90;68.84;100174.85;108616;1276;22303;-77
2022/12/31 08:31:55;;;;;;;9.40;8.40;;;;;;;10.02;68.77;100175.98;108536;1273;23536;-78
2022/12/31 08:34:44;;;;;;;7.80;5.80;;;;;;;10.14;68.86;100178.14;108519;1275;21932;-76
2022/12/31 08:38:06;;;;;;;6.20;5.40;;;;;;;10.21;68.54;100169.66;108515;1276;23790;-80
2022/12/31 08:41:18;;;;;;;9.60;8.20;;;;;;;10.24;68.39;100175.33;108699;1273;21926;-76
2022/12/31 08:44:37;;;;;;;8.10;6.90;;;;;;;10.25;68.33;100174.73;108463;1279;22998;-81
2022/12/31 08:47:46;;;;;;;9.40;6.70;;;;;;;10.28;68.39;100173.42;108403;1278;21938;-76
2022/12/31 08:50:31;;;;;;;8.90;6.70;;;;;;;10.30;68.27;100177.51;108297;1279;21945;-79
2022/12/31 08:53:10;;;;;;;14.60;10.80;;;;;;;10.34;68.30;100178.42;108427;1276;21943;-79
2022/12/31 08:56:29;;;;;;;13.30;10.50;;;;;;;10.40;68.19;100186.38;108195;1278;21944;-76
2022/12/31 08:59:48;;;;;;;26.90;23.90;;;;;;;10.45;68.36;100194.52;108243;1285;21961;-77
2022/12/31 09:03:33;;;;;;;10.60;7.50;;;;;;;10.54;68.41;100191.39;108446;1279;21942;-78
2022/12/31 09:06:36;;;;;;;7.90;5.40;;;;;;;10.64;68.37;100193.92;108435;1279;23075;-77
2022/12/31 09:09:46;;;;;;;7.10;6.40;;;;;;;10.72;68.16;100185.92;108303;1267;21942;-78
2022/12/31 09:12:34;;;;;;;5.80;5.20;;;;;;;10.75;67.97;100185.15;108536;1279;22082;-81
2022/12/31 09:16:02;;;;;;;5.40;4.90;;;;;;;10.77;68.02;100184.70;108376;1279;22719;-81
2022/12/31 09:18:42;;;;;;;33.00;27.20;;;;;;;10.75;68.06;100176.42;108999;1271;23013;-84
2022/12/31 09:21:15;;;;;;;17.30;10.80;;;;;;;10.73;68.26;100167.95;108934;1262;23018;-79
2022/12/31 09:23:46;;;;;;;14.00;11.60;;;;;;;10.68;68.47;100161.59;108896;1270;22449;-80
2022/12/31 09:26:50;;;;;;;9.30;8.30;;;;;;;10.62;68.73;100153.49;108894;1274;21992;-78
2022/12/31 09:30:03;;;;;;;9.60;8.60;;;;;;;10.57;69.08;100146.71;108891;1270;22012;-79
2022/12/31 09:33:01;;;;;;;10.70;8.50;;;;;;;10.56;69.45;100139.62;108687;1274;21925;-80
2022/12/31 09:36:03;;;;;;;11.10;10.00;;;;;;;10.57;69.70;100137.82;108959;1271;21926;-83
2022/12/31 09:39:12;;;;;;;11.20;7.70;;;;;;;10.59;70.08;100137.58;108969;1272;21938;-83
2022/12/31 09:43:14;;;;;;;8.70;7.60;;;;;;;10.60;70.08;100145.02;108847;1274;21976;-78
2022/12/31 09:46:33;;;;;;;7.90;6.30;;;;;;;10.65;70.22;100144.63;108855;1277;23580;-80
2022/12/31 09:49:42;;;;;;;8.70;6.60;;;;;;;10.69;70.32;100142.05;108615;1273;23093;-79
2022/12/31 09:52:44;;;;;;;9.50;7.80;;;;;;;10.73;70.30;100142.02;108419;1277;21932;-81
2022/12/31 09:55:43;;;;;;;9.30;6.80;;;;;;;10.78;70.20;100145.84;108568;1277;21935;-81
2022/12/31 09:58:47;;;;;;;8.20;5.70;;;;;;;10.80;70.11;100141.77;108671;1278;21994;-80
2022/12/31 10:01:55;;;;;;;7.40;6.60;;;;;;;10.83;70.07;100138.14;108513;1278;21940;-83
2022/12/31 10:04:57;;;;;;;9.60;7.10;;;;;;;10.87;70.09;100137.48;108777;1278;23585;-83
2022/12/31 10:07:43;;;;;;;11.00;7.70;;;;;;;10.89;70.06;100128.52;108733;1278;21928;-82
2022/12/31 10:11:04;;;;;;;9.20;7.10;;;;;;;10.92;70.06;100123.48;108400;1279;23682;-83
2022/12/31 10:14:13;;;;;;;14.50;11.50;;;;;;;11.00;70.08;100118.13;108020;1289;23730;-78
2022/12/31 10:17:35;;;;;;;16.20;13.80;;;;;;;11.11;70.05;100119.02;107762;1289;22027;-81
2022/12/31 10:20:53;;;;;;;7.60;6.80;;;;;;;11.26;70.06;100116.45;108110;1283;23048;-79
2022/12/31 10:24:12;;;;;;;11.80;10.00;;;;;;;11.37;69.55;100099.77;107924;1289;23129;-80
2022/12/31 10:26:53;;;;;;;9.90;8.20;;;;;;;11.49;69.29;100098.34;107624;1292;21949;-81
2022/12/31 10:29:58;;;;;;;8.20;6.00;;;;;;;11.60;69.10;100096.77;108061;1283;22466;-77
2022/12/31 10:32:57;;;;;;;7.40;6.10;;;;;;;11.72;69.05;100096.23;108066;1285;23035;-82
2022/12/31 10:36:07;;;;;;;7.30;6.50;;;;;;;11.85;68.56;100089.69;107872;1286;22019;-77
2022/12/31 10:39:15;;;;;;;8.30;7.10;;;;;;;11.90;68.15;100080.78;108100;1285;21968;-81
2022/12/31 10:42:29;;;;;;;10.00;8.50;;;;;;;11.90;67.90;100076.77;108141;1283;21943;-80
2022/12/31 10:45:59;;;;;;;9.70;8.70;;;;;;;11.95;67.91;100076.18;107819;1289;22031;-78
2022/12/31 10:49:28;;;;;;;9.50;8.50;;;;;;;12.04;67.97;100073.13;107366;1295;22964;-82
2022/12/31 10:52:12;;;;;;;12.40;9.70;;;;;;;12.20;67.84;100073.76;107113;1295;22492;-80
2022/12/31 10:55:14;;;;;;;16.50;11.80;;;;;;;12.45;67.81;100079.52;107370;1298;22370;-78
2022/12/31 10:57:54;;;;;;;12.60;8.40;;;;;;;12.69;67.22;100086.54;106669;1300;23737;-83
2022/12/31 11:01:24;;;;;;;9.40;8.00;;;;;;;12.91;66.82;100086.96;107124;1295;23688;-79
2022/12/31 11:04:58;;;;;;;9.50;7.00;;;;;;;13.25;65.64;100082.95;107971;1288;22889;-79
2022/12/31 11:08:14;;;;;;;6.30;4.80;;;;;;;13.61;65.18;100076.48;108112;1285;21968;-82
2022/12/31 11:11:44;;;;;;;16.70;12.90;;;;;;;13.85;64.33;100079.70;108193;1285;21946;-83
2022/12/31 11:14:52;;;;;;;20.00;14.30;;;;;;;13.96;64.15;100084.50;107709;1288;21960;-80
2022/12/31 11:17:58;;;;;;;17.50;12.70;;;;;;;13.95;63.13;100076.55;108274;1278;21953;-78
2022/12/31 11:21:15;;;;;;;18.00;12.20;;;;;;;13.77;62.67;100071.91;107990;1285;22877;-83
2022/12/31 11:23:51;;;;;;;17.80;13.90;;;;;;;13.69;63.39;100076.04;108401;1277;21906;-78
2022/12/31 11:27:11;;;;;;;12.80;10.90;;;;;;;13.90;63.98;100073.28;108289;1282;21953;-78
2022/12/31 11:30:32;;;;;;;13.00;10.80;;;;;;;14.03;63.09;100069.97;108190;1282;23713;-83
2022/12/31 11:33:42;;;;;;;14.80;11.80;;;;;;;13.99;62.53;100066.27;108355;1282;21958;-79
2022/12/31 11:37:48;;;;;;;17.40;13.60;;;;;;;13.85;62.53;100053.49;108214;1275;21951;-80
2022/12/31 11:40:52;;;;;;;11.00;9.80;;;;;;;13.77;62.82;100049.55;108492;1282;23608;-83
2022/12/31 11:44:08;;;;;;;;;;;;;;;13.78;62.93;100047.23;108097;1281;23681;-79
2022/12/31 11:48:03;;;;;;;10.00;7.00;;;;;;;13.72;63.28;100038.62;108537;1278;21971;-78
2022/12/31 11:51:48;;;;;;;19.50;14.30;;;;;;;13.73;63.42;100030.71;107950;1283;23011;-81
2022/12/31 11:55:18;;;;;;;;;;;;;;;;;;;;;
2022/12/31 11:58:29;;;;;;;9.40;7.00;;;;;;;13.77;63.66;100016.34;107709;1287;21948;-79
2022/12/31 12:01:13;;;;;;;18.50;15.80;;;;;;;13.81;63.58;100017.14;107416;1292;21950;-79
2022/12/31 12:04:00;;;;;;;15.90;12.50;;;;;;;13.85;63.56;100015.15;106882;1292;22018;-80
2022/12/31 12:06:32;;;;;;;9.50;8.10;;;;;;;13.86;63.38;100016.31;106965;1295;23163;-79
2022/12/31 12:09:27;;;;;;;9.10;7.30;;;;;;;13.86;63.37;100018.11;107133;1294;21934;-78
2022/12/31 12:12:04;;;;;;;9.70;8.20;;;;;;;13.85;63.42;100023.74;107093;1294;22034;-79
2022/12/31 12:14:46;;;;;;;10.50;8.40;;;;;;;13.87;63.56;100022.60;107208;1295;21965;-79
2022/12/31 12:17:30;;;;;;;;;;;;;;;13.89;63.57;100022.63;106673;1300;21947;-78
2022/12/31 12:20:32;;;;;;;13.80;10.10;;;;;;;13.81;63.60;100026.55;106875;1299;23766;-78
2022/12/31 12:23:28;;;;;;;10.90;8.10;;;;;;;13.84;63.84;100032.03;106931;1294;21963;-78
2022/12/31 12:26:47;;;;;;;10.40;7.70;;;;;;;13.89;63.87;100023.34;107014;1289;23078;-79
2022/12/31 12:29:41;;;;;;;9.60;8.60;;;;;;;13.90;63.85;100021.89;107633;1275;21956;-79
2022/12/31 12:32:26;;;;;;;14.00;12.40;;;;;;;13.95;64.05;100017.59;107895;1286;22006;-79
2022/12/31 12:35:16;;;;;;;14.40;11.30;;;;;;;14.03;64.12;100020.12;108098;1270;21949;-79
2022/12/31 12:37:46;;;;;;;26.10;23.60;;;;;;;14.10;64.11;100025.97;109103;1272;21953;-78
2022/12/31 12:40:25;;;;;;;10.80;9.20;;;;;;;14.18;64.03;100024.62;108750;1272;23584;-78
2022/12/31 12:43:03;;;;;;;10.80;9.10;;;;;;;14.26;63.95;100024.89;108918;1272;23436;-80
2022/12/31 12:45:44;;;;;;;7.80;6.90;;;;;;;14.33;63.81;100020.79;108760;1270;23615;-77
2022/12/31 12:48:41;;;;;;;8.40;7.40;;;;;;;14.40;63.73;100021.08;108733;1270;22969;-79
2022/12/31 12:51:53;;;;;;;7.40;6.50;;;;;;;14.49;63.55;100015.17;108735;1272;22874;-77
2022/12/31 12:54:37;;;;;;;6.80;5.90;;;;;;;14.54;63.42;100019.05;108467;1275;22548;-77
2022/12/31 12:57:19;;;;;;;10.20;7.30;;;;;;;14.60;63.23;100012.08;108521;1277;23589;-77
2022/12/31 13:00:20;;;;;;;5.30;4.60;;;;;;;14.65;62.96;100016.70;108462;1278;23581;-77
2022/12/31 13:03:29;;;;;;;9.90;7.10;;;;;;;14.67;62.74;100016.42;108548;1277;22812;-77
2022/12/31 13:06:03;;;;;;;8.00;6.90;;;;;;;14.67;62.65;100026.02;108255;1283;21983;-78
2022/12/31 13:09:04;;;;;;;10.20;7.30;;;;;;;14.70;62.49;100031.98;108166;1278;23058;-78
2022/12/31 13:11:52;;;;;;;8.50;7.50;;;;;;;14.71;62.40;100029.44;108170;1283;21937;-77
2022/12/31 13:15:03;;;;;;;6.80;5.50;;;;;;;14.71;62.37;100032.77;108552;1277;21938;-77
2022/12/31 13:18:16;;;;;;;6.40;4.90;;;;;;;14.70;62.37;100030.59;108595;1277;23060;-78
2022/12/31 13:21:01;;;;;;;6.70;5.10;;;;;;;14.67;62.39;100030.41;108559;1277;21943;-79
2022/12/31 13:23:47;;;;;;;7.20;6.10;;;;;;;14.70;62.47;100034.42;108478;1272;21991;-79
2022/12/31 13:26:34;;;;;;;10.70;9.20;;;;;;;14.72;62.35;100036.90;108971;1270;23747;-80
2022/12/31 13:29:16;;;;;;;13.20;8.50;;;;;;;14.74;62.31;100041.36;108852;1272;22091;-80
2022/12/31 13:31:49;;;;;;;11.00;8.80;;;;;;;14.74;62.18;100039.58;108774;1274;21967;-79
2022/12/31 13:34:26;;;;;;;10.80;9.20;;;;;;;14.72;62.11;100036.06;108776;1275;21935;-78
2022/12/31 13:37:02;;;;;;;13.00;10.60;;;;;;;14.68;62.14;100043.84;108894;1271;23492;-79
2022/12/31 13:39:39;;;;;;;19.00;12.60;;;;;;;14.67;62.22;100049.63;108764;1273;23651;-79
2022/12/31 13:42:26;;;;;;;12.00;9.20;;;;;;;14.69;62.24;100049.38;108888;1274;23244;-80
2022/12/31 13:45:37;;;;;;;9.90;7.70;;;;;;;14.67;62.22;100053.70;108972;1271;21932;-80
2022/12/31 13:48:38;;;;;;;10.70;9.30;;;;;;;14.64;62.36;100053.52;108837;1280;22060;-80
2022/12/31 13:51:51;;;;;;;13.40;11.40;;;;;;;14.61;62.36;100053.12;108380;1278;21954;-80
2022/12/31 13:55:11;;;;;;;11.80;10.10;;;;;;;14.57;62.41;100047.61;108906;1277;23114;-83
2022/12/31 13:58:03;;;;;;;20.70;12.20;;;;;;;14.54;62.42;100043.20;108156;1283;21943;-78
2022/12/31 14:01:26;;;;;;;16.80;12.20;;;;;;;14.50;62.50;100038.90;108107;1283;21909;-78
2022/12/31 14:04:41;;;;;;;13.20;10.40;;;;;;;14.48;62.51;100044.80;108160;1283;22025;-79